MGGT/GUA METAR and TAF weather

Enter ICAO airport designator
Station Type Date Time Source
MGGT METAR 2019/08/24 22:00 UTC NOAA

MGGT 242200Z 05006KT 9999 FEW022 FEW026CB 26/15 Q1024 A3024 CB ESE/SE/SSE FEW200


Station Type Date Time Source
MGGT Decoded METAR 2019/08/24 22:00 UTC NOAA

Station name not available
Aug 24, 2019 - 06:00 PM EDT / 2019.08.24 2200 UTC
Wind: from the NE (050 degrees) at 7 MPH (6 KT):0
Visibility: greater than 7 mile(s):0
Sky conditions: mostly clear
Weather: Cumulonimbus clouds observed
Temperature: 78 F (26 C)
Dew Point: 59 F (15 C)
Relative Humidity: 50%
Pressure (altimeter): 30.24 in. Hg (1024 hPa)
ob: MGGT 242200Z 05006KT 9999 FEW022 FEW026CB 26/15 Q1024 A3024 CB ESE/SE/SSE FEW200
cycle: 22

Station Type Date Time Source
MGGT TAF 2019/08/24 18:50 UTC NOAA

MGGT 2418/2518 03008KT 9999 FEW018 TX26/2420Z TN17/2512Z PROB30
TEMPO 2420/2502 18008KT 8000 VCTSRA SCT020TCU FEW025CB
BECMG 2502/2504 36006KT SCT014
BECMG 2514/2516 VRB03KT FEW018

Example: see airport list